sensor_id;sensor_type;location;lat;lon;timestamp;pressure;altitude;pressure_sealevel;temperature;humidity
80397;BME280;69721;55.894;-3.052;2023-12-07T00:00:09;100684.01;;;2.27;58.17
80397;BME280;69721;55.894;-3.052;2023-12-07T00:02:34;100682.89;;;3.10;55.62
80397;BME280;69721;55.894;-3.052;2023-12-07T00:05:00;100679.73;;;2.79;54.44
80397;BME280;69721;55.894;-3.052;2023-12-07T00:07:25;100685.75;;;3.32;55.13
80397;BME280;69721;55.894;-3.052;2023-12-07T00:09:51;100687.79;;;3.60;54.46
80397;BME280;69721;55.894;-3.052;2023-12-07T00:12:16;100676.96;;;4.12;52.05
80397;BME280;69721;55.894;-3.052;2023-12-07T00:14:42;100674.06;;;5.34;49.91
80397;BME280;69721;55.894;-3.052;2023-12-07T00:17:07;100674.07;;;3.96;52.01
80397;BME280;69721;55.894;-3.052;2023-12-07T00:19:33;100666.71;;;5.05;50.03
80397;BME280;69721;55.894;-3.052;2023-12-07T00:21:58;100662.29;;;4.80;50.27
80397;BME280;69721;55.894;-3.052;2023-12-07T00:24:24;100665.72;;;4.95;49.49
80397;BME280;69721;55.894;-3.052;2023-12-07T00:26:50;100665.33;;;6.44;46.86
80397;BME280;69721;55.894;-3.052;2023-12-07T00:29:15;100663.16;;;4.43;50.80
80397;BME280;69721;55.894;-3.052;2023-12-07T00:31:41;100650.52;;;5.64;47.44
80397;BME280;69721;55.894;-3.052;2023-12-07T00:34:06;100644.95;;;6.61;45.83
80397;BME280;69721;55.894;-3.052;2023-12-07T00:36:31;100645.62;;;6.78;44.88
80397;BME280;69721;55.894;-3.052;2023-12-07T00:38:57;100643.56;;;7.46;44.32
80397;BME280;69721;55.894;-3.052;2023-12-07T00:41:22;100640.53;;;7.67;43.50
80397;BME280;69721;55.894;-3.052;2023-12-07T00:43:49;100628.75;;;7.11;43.62
80397;BME280;69721;55.894;-3.052;2023-12-07T00:46:15;100632.74;;;7.67;43.39
80397;BME280;69721;55.894;-3.052;2023-12-07T00:48:40;100632.23;;;6.27;45.35
80397;BME280;69721;55.894;-3.052;2023-12-07T00:51:06;100626.33;;;4.00;51.02
80397;BME280;69721;55.894;-3.052;2023-12-07T00:53:31;100614.73;;;5.49;47.87
80397;BME280;69721;55.894;-3.052;2023-12-07T00:55:57;100623.74;;;3.27;52.51
80397;BME280;69721;55.894;-3.052;2023-12-07T00:58:22;100622.28;;;1.84;58.42
80397;BME280;69721;55.894;-3.052;2023-12-07T01:00:48;100626.06;;;1.19;59.97
80397;BME280;69721;55.894;-3.052;2023-12-07T01:03:13;100628.81;;;1.38;61.11
80397;BME280;69721;55.894;-3.052;2023-12-07T01:05:39;100622.04;;;0.83;62.32
80397;BME280;69721;55.894;-3.052;2023-12-07T01:08:04;100607.06;;;2.33;58.56
80397;BME280;69721;55.894;-3.052;2023-12-07T01:10:30;100611.06;;;3.93;55.09
80397;BME280;69721;55.894;-3.052;2023-12-07T01:12:55;100605.99;;;3.25;55.07
80397;BME280;69721;55.894;-3.052;2023-12-07T01:15:21;100611.59;;;1.93;58.36
80397;BME280;69721;55.894;-3.052;2023-12-07T01:17:46;100612.62;;;1.88;57.55
80397;BME280;69721;55.894;-3.052;2023-12-07T01:20:12;100613.28;;;2.40;57.98
80397;BME280;69721;55.894;-3.052;2023-12-07T01:22:37;100608.35;;;3.50;56.04
80397;BME280;69721;55.894;-3.052;2023-12-07T01:25:02;100604.99;;;1.91;59.81
80397;BME280;69721;55.894;-3.052;2023-12-07T01:27:27;100608.32;;;1.65;60.48
80397;BME280;69721;55.894;-3.052;2023-12-07T01:29:53;100602.34;;;1.25;60.67
80397;BME280;69721;55.894;-3.052;2023-12-07T01:32:19;100595.64;;;2.99;57.28
80397;BME280;69721;55.894;-3.052;2023-12-07T01:34:44;100593.08;;;2.32;58.03
80397;BME280;69721;55.894;-3.052;2023-12-07T01:37:10;100597.72;;;2.66;57.59
80397;BME280;69721;55.894;-3.052;2023-12-07T01:39:35;100592.77;;;3.56;54.96
80397;BME280;69721;55.894;-3.052;2023-12-07T01:42:00;100592.76;;;1.89;59.26
80397;BME280;69721;55.894;-3.052;2023-12-07T01:44:26;100589.88;;;2.65;58.10
80397;BME280;69721;55.894;-3.052;2023-12-07T01:46:51;100589.50;;;1.60;60.22
80397;BME280;69721;55.894;-3.052;2023-12-07T01:49:17;100589.36;;;2.32;58.74
80397;BME280;69721;55.894;-3.052;2023-12-07T01:51:42;100582.90;;;2.53;59.24
80397;BME280;69721;55.894;-3.052;2023-12-07T01:54:08;100579.20;;;2.73;58.71
80397;BME280;69721;55.894;-3.052;2023-12-07T01:56:33;100570.23;;;3.12;57.75
80397;BME280;69721;55.894;-3.052;2023-12-07T01:58:59;100556.43;;;3.31;56.30
80397;BME280;69721;55.894;-3.052;2023-12-07T02:01:24;100551.42;;;2.43;58.64
80397;BME280;69721;55.894;-3.052;2023-12-07T02:03:52;100551.38;;;2.94;58.63
80397;BME280;69721;55.894;-3.052;2023-12-07T02:06:17;100546.92;;;3.08;56.57
80397;BME280;69721;55.894;-3.052;2023-12-07T02:08:44;100555.61;;;1.50;60.57
80397;BME280;69721;55.894;-3.052;2023-12-07T02:11:09;100548.43;;;2.56;59.02
80397;BME280;69721;55.894;-3.052;2023-12-07T02:13:35;100539.52;;;1.33;60.61
80397;BME280;69721;55.894;-3.052;2023-12-07T02:16:04;100537.06;;;1.81;61.43
80397;BME280;69721;55.894;-3.052;2023-12-07T02:18:31;100534.85;;;2.46;59.61
80397;BME280;69721;55.894;-3.052;2023-12-07T02:20:57;100531.51;;;4.01;56.18
80397;BME280;69721;55.894;-3.052;2023-12-07T02:23:18;100529.24;;;4.36;53.90
80397;BME280;69721;55.894;-3.052;2023-12-07T02:25:51;100532.06;;;3.46;55.26
80397;BME280;69721;55.894;-3.052;2023-12-07T02:28:08;100529.26;;;4.22;54.72
80397;BME280;69721;55.894;-3.052;2023-12-07T02:30:33;100538.92;;;4.37;54.74
80397;BME280;69721;55.894;-3.052;2023-12-07T02:32:58;100538.30;;;3.16;56.60
80397;BME280;69721;55.894;-3.052;2023-12-07T02:35:25;100536.96;;;2.87;58.32
80397;BME280;69721;55.894;-3.052;2023-12-07T02:37:50;100530.89;;;2.09;58.66
80397;BME280;69721;55.894;-3.052;2023-12-07T02:40:18;100530.86;;;2.55;58.16
80397;BME280;69721;55.894;-3.052;2023-12-07T02:42:40;100517.92;;;1.23;61.98
80397;BME280;69721;55.894;-3.052;2023-12-07T02:45:06;100526.32;;;1.33;62.39
80397;BME280;69721;55.894;-3.052;2023-12-07T02:47:30;100516.93;;;1.38;63.10
80397;BME280;69721;55.894;-3.052;2023-12-07T02:49:55;100516.21;;;1.11;64.39
80397;BME280;69721;55.894;-3.052;2023-12-07T02:52:20;100518.43;;;1.00;63.53
80397;BME280;69721;55.894;-3.052;2023-12-07T02:54:45;100509.53;;;0.46;66.56
80397;BME280;69721;55.894;-3.052;2023-12-07T02:57:11;100511.03;;;0.24;68.12
80397;BME280;69721;55.894;-3.052;2023-12-07T02:59:36;100502.30;;;0.54;66.98
80397;BME280;69721;55.894;-3.052;2023-12-07T03:02:02;100498.02;;;0.75;67.29
80397;BME280;69721;55.894;-3.052;2023-12-07T03:04:27;100505.23;;;0.10;69.13
80397;BME280;69721;55.894;-3.052;2023-12-07T03:06:52;100496.21;;;-0.48;70.40
80397;BME280;69721;55.894;-3.052;2023-12-07T03:09:18;100506.12;;;-0.29;70.62
80397;BME280;69721;55.894;-3.052;2023-12-07T03:11:45;100499.12;;;0.12;69.20
80397;BME280;69721;55.894;-3.052;2023-12-07T03:14:10;100491.73;;;-0.26;70.13
80397;BME280;69721;55.894;-3.052;2023-12-07T03:16:36;100485.95;;;0.27;69.07
80397;BME280;69721;55.894;-3.052;2023-12-07T03:19:01;100476.62;;;-0.21;69.42
80397;BME280;69721;55.894;-3.052;2023-12-07T03:21:26;100467.60;;;0.48;69.16
80397;BME280;69721;55.894;-3.052;2023-12-07T03:23:51;100453.93;;;0.42;67.94
80397;BME280;69721;55.894;-3.052;2023-12-07T03:26:17;100452.23;;;-0.22;69.57
80397;BME280;69721;55.894;-3.052;2023-12-07T03:28:42;100437.64;;;-0.15;69.81
80397;BME280;69721;55.894;-3.052;2023-12-07T03:31:07;100436.67;;;-0.06;69.84
80397;BME280;69721;55.894;-3.052;2023-12-07T03:33:33;100438.80;;;0.28;69.07
80397;BME280;69721;55.894;-3.052;2023-12-07T03:35:58;100428.93;;;0.28;68.99
80397;BME280;69721;55.894;-3.052;2023-12-07T03:38:24;100428.96;;;0.27;68.44
80397;BME280;69721;55.894;-3.052;2023-12-07T03:40:49;100424.22;;;0.64;67.60
80397;BME280;69721;55.894;-3.052;2023-12-07T03:43:15;100419.98;;;0.22;68.47
80397;BME280;69721;55.894;-3.052;2023-12-07T03:45:41;100411.86;;;0.04;68.88
80397;BME280;69721;55.894;-3.052;2023-12-07T03:48:07;100402.79;;;0.08;69.67
80397;BME280;69721;55.894;-3.052;2023-12-07T03:50:32;100407.82;;;0.84;68.26
80397;BME280;69721;55.894;-3.052;2023-12-07T03:52:57;100403.07;;;0.93;66.72
80397;BME280;69721;55.894;-3.052;2023-12-07T03:55:23;100394.19;;;1.06;65.23
80397;BME280;69721;55.894;-3.052;2023-12-07T03:57:49;100385.58;;;0.74;65.99
80397;BME280;69721;55.894;-3.052;2023-12-07T04:00:14;100383.71;;;0.98;65.62
80397;BME280;69721;55.894;-3.052;2023-12-07T04:02:39;100387.30;;;0.24;67.73
80397;BME280;69721;55.894;-3.052;2023-12-07T04:05:05;100379.37;;;0.67;66.30
80397;BME280;69721;55.894;-3.052;2023-12-07T04:07:30;100381.13;;;0.48;66.93
80397;BME280;69721;55.894;-3.052;2023-12-07T04:09:55;100383.21;;;0.78;65.92
80397;BME280;69721;55.894;-3.052;2023-12-07T04:12:21;100379.44;;;0.56;67.02
80397;BME280;69721;55.894;-3.052;2023-12-07T04:14:46;100364.49;;;0.51;66.91
80397;BME280;69721;55.894;-3.052;2023-12-07T04:17:12;100367.09;;;0.37;67.01
80397;BME280;69721;55.894;-3.052;2023-12-07T04:19:38;100371.19;;;0.86;66.09
80397;BME280;69721;55.894;-3.052;2023-12-07T04:22:03;100366.78;;;0.65;66.91
80397;BME280;69721;55.894;-3.052;2023-12-07T04:24:28;100370.19;;;0.65;66.54
80397;BME280;69721;55.894;-3.052;2023-12-07T04:26:55;100367.96;;;0.95;65.09
80397;BME280;69721;55.894;-3.052;2023-12-07T04:29:19;100370.68;;;0.67;66.11
80397;BME280;69721;55.894;-3.052;2023-12-07T04:31:44;100372.10;;;2.27;62.00
80397;BME280;69721;55.894;-3.052;2023-12-07T04:34:10;100370.87;;;1.57;62.56
80397;BME280;69721;55.894;-3.052;2023-12-07T04:36:36;100367.33;;;1.18;64.93
80397;BME280;69721;55.894;-3.052;2023-12-07T04:39:01;100366.50;;;1.13;64.79
80397;BME280;69721;55.894;-3.052;2023-12-07T04:41:27;100358.20;;;1.14;64.21
80397;BME280;69721;55.894;-3.052;2023-12-07T04:43:52;100357.39;;;1.40;63.54
80397;BME280;69721;55.894;-3.052;2023-12-07T04:46:18;100353.99;;;2.37;61.41
80397;BME280;69721;55.894;-3.052;2023-12-07T04:48:43;100356.99;;;2.15;61.83
80397;BME280;69721;55.894;-3.052;2023-12-07T04:51:09;100346.98;;;1.92;61.31
80397;BME280;69721;55.894;-3.052;2023-12-07T04:53:34;100351.69;;;0.90;64.01
80397;BME280;69721;55.894;-3.052;2023-12-07T04:55:59;100345.17;;;3.73;57.41
80397;BME280;69721;55.894;-3.052;2023-12-07T04:58:25;100339.14;;;3.01;56.68
80397;BME280;69721;55.894;-3.052;2023-12-07T05:00:51;100345.64;;;3.04;58.13
80397;BME280;69721;55.894;-3.052;2023-12-07T05:03:16;100338.05;;;2.67;58.58
80397;BME280;69721;55.894;-3.052;2023-12-07T05:05:42;100338.47;;;2.32;59.79
80397;BME280;69721;55.894;-3.052;2023-12-07T05:08:08;100343.66;;;1.70;60.37
80397;BME280;69721;55.894;-3.052;2023-12-07T05:10:34;100339.51;;;4.57;56.19
80397;BME280;69721;55.894;-3.052;2023-12-07T05:13:00;100335.46;;;3.88;55.77
80397;BME280;69721;55.894;-3.052;2023-12-07T05:15:26;100333.51;;;2.46;57.23
80397;BME280;69721;55.894;-3.052;2023-12-07T05:17:51;100324.98;;;3.88;56.07
80397;BME280;69721;55.894;-3.052;2023-12-07T05:20:17;100314.28;;;5.14;52.57
80397;BME280;69721;55.894;-3.052;2023-12-07T05:22:42;100309.63;;;4.55;52.57
80397;BME280;69721;55.894;-3.052;2023-12-07T05:25:08;100308.89;;;5.00;51.66
80397;BME280;69721;55.894;-3.052;2023-12-07T05:27:33;100311.08;;;2.54;57.93
80397;BME280;69721;55.894;-3.052;2023-12-07T05:29:58;100299.82;;;3.71;55.95
80397;BME280;69721;55.894;-3.052;2023-12-07T05:32:24;100296.28;;;5.11;51.78
80397;BME280;69721;55.894;-3.052;2023-12-07T05:34:49;100294.64;;;3.38;56.17
80397;BME280;69721;55.894;-3.052;2023-12-07T05:37:15;100291.11;;;4.77;53.42
80397;BME280;69721;55.894;-3.052;2023-12-07T05:39:40;100289.98;;;4.33;52.46
80397;BME280;69721;55.894;-3.052;2023-12-07T05:42:06;100281.45;;;6.00;51.30
80397;BME280;69721;55.894;-3.052;2023-12-07T05:44:31;100270.08;;;6.49;48.14
80397;BME280;69721;55.894;-3.052;2023-12-07T05:46:57;100272.87;;;5.78;49.05
80397;BME280;69721;55.894;-3.052;2023-12-07T05:49:23;100262.69;;;5.75;49.42
80397;BME280;69721;55.894;-3.052;2023-12-07T05:51:48;100268.63;;;6.28;48.77
80397;BME280;69721;55.894;-3.052;2023-12-07T05:54:14;100271.63;;;4.70;51.25
80397;BME280;69721;55.894;-3.052;2023-12-07T05:56:39;100267.16;;;4.69;52.20
80397;BME280;69721;55.894;-3.052;2023-12-07T05:59:04;100257.68;;;4.08;52.54
80397;BME280;69721;55.894;-3.052;2023-12-07T06:01:30;100257.69;;;3.67;54.94
80397;BME280;69721;55.894;-3.052;2023-12-07T06:03:55;100252.10;;;3.55;54.91
80397;BME280;69721;55.894;-3.052;2023-12-07T06:06:21;100254.42;;;3.27;57.14
80397;BME280;69721;55.894;-3.052;2023-12-07T06:08:47;100240.41;;;3.28;56.86
80397;BME280;69721;55.894;-3.052;2023-12-07T06:11:12;100229.33;;;2.98;59.69
80397;BME280;69721;55.894;-3.052;2023-12-07T06:13:38;100221.25;;;2.28;60.78
80397;BME280;69721;55.894;-3.052;2023-12-07T06:16:04;100215.79;;;1.52;64.63
80397;BME280;69721;55.894;-3.052;2023-12-07T06:18:29;100210.30;;;1.51;64.93
80397;BME280;69721;55.894;-3.052;2023-12-07T06:20:54;100197.32;;;2.26;63.18
80397;BME280;69721;55.894;-3.052;2023-12-07T06:23:19;100196.66;;;1.56;65.09
80397;BME280;69721;55.894;-3.052;2023-12-07T06:25:45;100185.10;;;1.84;63.39
80397;BME280;69721;55.894;-3.052;2023-12-07T06:28:11;100197.97;;;2.49;63.11
80397;BME280;69721;55.894;-3.052;2023-12-07T06:30:37;100198.89;;;3.05;61.77
80397;BME280;69721;55.894;-3.052;2023-12-07T06:33:02;100197.94;;;2.88;61.93
80397;BME280;69721;55.894;-3.052;2023-12-07T06:35:27;100195.99;;;2.36;61.42
80397;BME280;69721;55.894;-3.052;2023-12-07T06:37:53;100194.58;;;2.09;62.96
80397;BME280;69721;55.894;-3.052;2023-12-07T06:40:18;100194.01;;;2.23;63.44
80397;BME280;69721;55.894;-3.052;2023-12-07T06:42:43;100185.05;;;1.88;64.73
80397;BME280;69721;55.894;-3.052;2023-12-07T06:45:09;100177.05;;;3.79;59.61
80397;BME280;69721;55.894;-3.052;2023-12-07T06:47:34;100168.83;;;3.86;57.73
80397;BME280;69721;55.894;-3.052;2023-12-07T06:50:00;100172.17;;;3.06;59.81
80397;BME280;69721;55.894;-3.052;2023-12-07T06:52:25;100168.46;;;3.08;59.96
80397;BME280;69721;55.894;-3.052;2023-12-07T06:54:51;100163.87;;;2.35;61.44
80397;BME280;69721;55.894;-3.052;2023-12-07T06:57:16;100157.74;;;2.94;60.39
80397;BME280;69721;55.894;-3.052;2023-12-07T06:59:42;100160.53;;;2.23;61.56
80397;BME280;69721;55.894;-3.052;2023-12-07T07:02:07;100158.25;;;3.02;61.40
80397;BME280;69721;55.894;-3.052;2023-12-07T07:04:32;100149.52;;;2.43;61.85
80397;BME280;69721;55.894;-3.052;2023-12-07T07:06:58;100149.05;;;2.78;61.57
80397;BME280;69721;55.894;-3.052;2023-12-07T07:09:23;100136.78;;;2.31;61.79
80397;BME280;69721;55.894;-3.052;2023-12-07T07:11:49;100132.86;;;2.47;61.68
80397;BME280;69721;55.894;-3.052;2023-12-07T07:14:14;100125.02;;;4.05;57.81
80397;BME280;69721;55.894;-3.052;2023-12-07T07:16:40;100116.20;;;3.75;58.00
80397;BME280;69721;55.894;-3.052;2023-12-07T07:19:05;100108.56;;;2.77;60.13
80397;BME280;69721;55.894;-3.052;2023-12-07T07:21:30;100104.10;;;1.82;62.15
80397;BME280;69721;55.894;-3.052;2023-12-07T07:23:56;100096.25;;;2.67;60.67
80397;BME280;69721;55.894;-3.052;2023-12-07T07:26:22;100087.22;;;2.36;63.49
80397;BME280;69721;55.894;-3.052;2023-12-07T07:28:47;100084.08;;;1.97;63.82
80397;BME280;69721;55.894;-3.052;2023-12-07T07:31:13;100080.87;;;1.70;66.58
80397;BME280;69721;55.894;-3.052;2023-12-07T07:33:38;100084.41;;;1.73;65.67
80397;BME280;69721;55.894;-3.052;2023-12-07T07:36:04;100088.95;;;2.23;63.97
80397;BME280;69721;55.894;-3.052;2023-12-07T07:38:29;100089.25;;;3.62;60.67
80397;BME280;69721;55.894;-3.052;2023-12-07T07:40:55;100094.11;;;3.37;60.53
80397;BME280;69721;55.894;-3.052;2023-12-07T07:43:20;100083.67;;;2.24;63.88
80397;BME280;69721;55.894;-3.052;2023-12-07T07:45:46;100088.86;;;2.24;64.19
80397;BME280;69721;55.894;-3.052;2023-12-07T07:48:11;100091.24;;;2.77;62.26
80397;BME280;69721;55.894;-3.052;2023-12-07T07:50:37;100088.20;;;2.19;64.23
80397;BME280;69721;55.894;-3.052;2023-12-07T07:53:03;100083.09;;;1.57;66.08
80397;BME280;69721;55.894;-3.052;2023-12-07T07:55:28;100084.89;;;2.76;63.57
80397;BME280;69721;55.894;-3.052;2023-12-07T07:57:54;100087.11;;;2.63;63.07
80397;BME280;69721;55.894;-3.052;2023-12-07T08:00:19;100088.76;;;3.39;61.29
80397;BME280;69721;55.894;-3.052;2023-12-07T08:02:45;100086.27;;;2.57;63.72
80397;BME280;69721;55.894;-3.052;2023-12-07T08:05:10;100081.63;;;2.36;63.57
80397;BME280;69721;55.894;-3.052;2023-12-07T08:07:35;100073.71;;;1.48;65.65
80397;BME280;69721;55.894;-3.052;2023-12-07T08:10:01;100072.33;;;1.98;65.41
80397;BME280;69721;55.894;-3.052;2023-12-07T08:12:26;100064.59;;;2.86;62.36
80397;BME280;69721;55.894;-3.052;2023-12-07T08:14:51;100062.09;;;1.87;65.26
80397;BME280;69721;55.894;-3.052;2023-12-07T08:17:17;100065.11;;;2.43;64.49
80397;BME280;69721;55.894;-3.052;2023-12-07T08:19:43;100063.42;;;2.02;65.52
80397;BME280;69721;55.894;-3.052;2023-12-07T08:22:08;100041.31;;;1.23;67.35
80397;BME280;69721;55.894;-3.052;2023-12-07T08:24:34;100035.04;;;1.39;66.98
80397;BME280;69721;55.894;-3.052;2023-12-07T08:27:00;100024.31;;;1.90;65.48
80397;BME280;69721;55.894;-3.052;2023-12-07T08:29:25;100016.20;;;2.41;65.76
80397;BME280;69721;55.894;-3.052;2023-12-07T08:31:51;100010.79;;;1.83;65.42
80397;BME280;69721;55.894;-3.052;2023-12-07T08:34:16;100020.96;;;2.63;65.11
80397;BME280;69721;55.894;-3.052;2023-12-07T08:36:41;100024.36;;;2.43;63.47
80397;BME280;69721;55.894;-3.052;2023-12-07T08:39:06;100025.25;;;1.99;65.84
80397;BME280;69721;55.894;-3.052;2023-12-07T08:41:33;100023.06;;;2.79;64.97
80397;BME280;69721;55.894;-3.052;2023-12-07T08:43:58;100017.40;;;3.10;63.24
80397;BME280;69721;55.894;-3.052;2023-12-07T08:46:24;100014.78;;;3.54;61.79
80397;BME280;69721;55.894;-3.052;2023-12-07T08:48:49;100017.72;;;3.51;61.07
80397;BME280;69721;55.894;-3.052;2023-12-07T08:51:15;100012.63;;;3.50;61.80
80397;BME280;69721;55.894;-3.052;2023-12-07T08:53:41;100004.60;;;3.59;62.12
80397;BME280;69721;55.894;-3.052;2023-12-07T08:56:07;100004.85;;;3.09;63.60
80397;BME280;69721;55.894;-3.052;2023-12-07T08:58:32;100008.22;;;3.03;63.38
80397;BME280;69721;55.894;-3.052;2023-12-07T09:00:57;100012.66;;;2.47;65.13
80397;BME280;69721;55.894;-3.052;2023-12-07T09:03:23;100007.89;;;3.78;62.15
80397;BME280;69721;55.894;-3.052;2023-12-07T09:05:49;100008.27;;;3.93;60.95
80397;BME280;69721;55.894;-3.052;2023-12-07T09:08:14;99995.69;;;3.27;62.92
80397;BME280;69721;55.894;-3.052;2023-12-07T09:10:40;100006.79;;;3.05;64.64
80397;BME280;69721;55.894;-3.052;2023-12-07T09:13:06;100000.93;;;2.29;66.51
80397;BME280;69721;55.894;-3.052;2023-12-07T09:15:32;99993.85;;;3.65;63.00
80397;BME280;69721;55.894;-3.052;2023-12-07T09:17:57;99989.67;;;3.14;62.95
80397;BME280;69721;55.894;-3.052;2023-12-07T09:20:23;99998.18;;;3.13;64.10
80397;BME280;69721;55.894;-3.052;2023-12-07T09:22:49;99991.23;;;2.77;64.31
80397;BME280;69721;55.894;-3.052;2023-12-07T09:25:16;99991.11;;;3.48;62.48
80397;BME280;69721;55.894;-3.052;2023-12-07T09:27:41;99986.56;;;3.67;62.70
80397;BME280;69721;55.894;-3.052;2023-12-07T09:30:07;99977.99;;;5.76;58.13
80397;BME280;69721;55.894;-3.052;2023-12-07T09:32:32;99986.16;;;3.82;60.07
80397;BME280;69721;55.894;-3.052;2023-12-07T09:34:57;99981.08;;;3.84;62.05
80397;BME280;69721;55.894;-3.052;2023-12-07T09:37:23;99975.63;;;3.72;62.21
80397;BME280;69721;55.894;-3.052;2023-12-07T09:39:48;99966.94;;;4.24;60.93
80397;BME280;69721;55.894;-3.052;2023-12-07T09:42:14;99961.46;;;3.95;61.03
80397;BME280;69721;55.894;-3.052;2023-12-07T09:44:40;99963.09;;;2.97;63.67
80397;BME280;69721;55.894;-3.052;2023-12-07T09:47:06;99961.20;;;3.01;63.58
80397;BME280;69721;55.894;-3.052;2023-12-07T09:49:31;99952.51;;;3.95;61.93
80397;BME280;69721;55.894;-3.052;2023-12-07T09:51:58;99951.86;;;4.21;60.81
80397;BME280;69721;55.894;-3.052;2023-12-07T09:54:22;99946.57;;;4.37;60.02
80397;BME280;69721;55.894;-3.052;2023-12-07T09:56:48;99951.51;;;3.86;61.95
80397;BME280;69721;55.894;-3.052;2023-12-07T09:59:13;99950.38;;;4.08;61.38
80397;BME280;69721;55.894;-3.052;2023-12-07T10:01:38;99955.69;;;3.64;63.34
80397;BME280;69721;55.894;-3.052;2023-12-07T10:04:15;99940.69;;;3.20;65.14
80397;BME280;69721;55.894;-3.052;2023-12-07T10:06:42;99932.85;;;2.97;64.96
80397;BME280;69721;55.894;-3.052;2023-12-07T10:09:03;99942.35;;;2.67;66.98
80397;BME280;69721;55.894;-3.052;2023-12-07T10:11:21;99939.15;;;3.13;65.25
80397;BME280;69721;55.894;-3.052;2023-12-07T10:13:48;99925.46;;;4.26;61.90
80397;BME280;69721;55.894;-3.052;2023-12-07T10:16:15;99931.87;;;3.53;63.08
80397;BME280;69721;55.894;-3.052;2023-12-07T10:18:40;99930.43;;;3.62;63.02
80397;BME280;69721;55.894;-3.052;2023-12-07T10:21:05;99913.03;;;4.00;62.46
80397;BME280;69721;55.894;-3.052;2023-12-07T10:23:30;99905.75;;;3.60;63.68
80397;BME280;69721;55.894;-3.052;2023-12-07T10:25:56;99902.53;;;2.73;65.75
80397;BME280;69721;55.894;-3.052;2023-12-07T10:28:21;99901.37;;;2.98;66.11
80397;BME280;69721;55.894;-3.052;2023-12-07T10:30:47;99889.94;;;3.85;63.84
80397;BME280;69721;55.894;-3.052;2023-12-07T10:33:13;99876.56;;;4.35;63.25
80397;BME280;69721;55.894;-3.052;2023-12-07T10:35:39;99872.30;;;4.05;63.84
80397;BME280;69721;55.894;-3.052;2023-12-07T10:38:04;99867.10;;;4.24;62.35
80397;BME280;69721;55.894;-3.052;2023-12-07T10:40:29;99863.94;;;2.73;66.07
80397;BME280;69721;55.894;-3.052;2023-12-07T10:42:57;99853.92;;;3.50;65.64
80397;BME280;69721;55.894;-3.052;2023-12-07T10:45:22;99844.72;;;3.19;65.79
80397;BME280;69721;55.894;-3.052;2023-12-07T10:47:46;99837.81;;;2.79;67.22
80397;BME280;69721;55.894;-3.052;2023-12-07T10:50:14;99827.90;;;3.80;64.34
80397;BME280;69721;55.894;-3.052;2023-12-07T10:52:42;99816.74;;;3.78;63.43
80397;BME280;69721;55.894;-3.052;2023-12-07T10:55:05;99809.71;;;3.56;64.46
80397;BME280;69721;55.894;-3.052;2023-12-07T10:57:29;99813.26;;;3.34;65.89
80397;BME280;69721;55.894;-3.052;2023-12-07T10:59:54;99815.16;;;4.06;63.55
80397;BME280;69721;55.894;-3.052;2023-12-07T11:02:21;99810.39;;;3.88;65.01
80397;BME280;69721;55.894;-3.052;2023-12-07T11:04:45;99806.40;;;3.51;64.53
80397;BME280;69721;55.894;-3.052;2023-12-07T11:07:16;99805.72;;;4.43;62.64
80397;BME280;69721;55.894;-3.052;2023-12-07T11:09:39;99802.39;;;5.62;60.26
80397;BME280;69721;55.894;-3.052;2023-12-07T11:12:07;99809.71;;;5.43;60.08
80397;BME280;69721;55.894;-3.052;2023-12-07T11:14:29;99797.75;;;4.06;61.35
80397;BME280;69721;55.894;-3.052;2023-12-07T11:16:56;99788.87;;;5.65;58.68
80397;BME280;69721;55.894;-3.052;2023-12-07T11:21:46;99784.58;;;5.43;58.17
80397;BME280;69721;55.894;-3.052;2023-12-07T11:24:16;99776.86;;;4.29;62.02
80397;BME280;69721;55.894;-3.052;2023-12-07T11:26:37;99775.37;;;4.32;61.91
80397;BME280;69721;55.894;-3.052;2023-12-07T11:29:03;99760.70;;;3.56;64.96
80397;BME280;69721;55.894;-3.052;2023-12-07T11:31:28;99759.37;;;3.15;65.87
80397;BME280;69721;55.894;-3.052;2023-12-07T11:33:54;99751.86;;;3.92;65.66
80397;BME280;69721;55.894;-3.052;2023-12-07T11:36:19;99760.50;;;3.43;66.68
80397;BME280;69721;55.894;-3.052;2023-12-07T11:41:11;99760.10;;;2.61;70.89
80397;BME280;69721;55.894;-3.052;2023-12-07T11:43:41;99761.14;;;2.92;69.77
80397;BME280;69721;55.894;-3.052;2023-12-07T11:46:03;99747.70;;;2.98;68.99
80397;BME280;69721;55.894;-3.052;2023-12-07T11:48:28;99757.25;;;3.03;68.51
80397;BME280;69721;55.894;-3.052;2023-12-07T11:50:55;99758.45;;;3.65;68.03
80397;BME280;69721;55.894;-3.052;2023-12-07T11:53:21;99746.62;;;3.63;66.23
80397;BME280;69721;55.894;-3.052;2023-12-07T11:55:45;99747.59;;;2.94;68.17
80397;BME280;69721;55.894;-3.052;2023-12-07T11:58:13;99746.50;;;2.62;68.29
80397;BME280;69721;55.894;-3.052;2023-12-07T12:00:36;99747.71;;;2.84;70.32
80397;BME280;69721;55.894;-3.052;2023-12-07T12:03:01;99734.78;;;3.07;68.89
80397;BME280;69721;55.894;-3.052;2023-12-07T12:05:27;99724.13;;;3.02;67.93
80397;BME280;69721;55.894;-3.052;2023-12-07T12:07:52;99722.98;;;3.21;68.61
80397;BME280;69721;55.894;-3.052;2023-12-07T12:10:18;99709.70;;;2.87;69.02
80397;BME280;69721;55.894;-3.052;2023-12-07T12:12:44;99700.79;;;2.75;70.52
80397;BME280;69721;55.894;-3.052;2023-12-07T12:15:10;99689.89;;;3.39;68.41
80397;BME280;69721;55.894;-3.052;2023-12-07T12:17:35;99699.19;;;4.52;65.01
80397;BME280;69721;55.894;-3.052;2023-12-07T12:20:01;99694.54;;;4.25;64.96
80397;BME280;69721;55.894;-3.052;2023-12-07T12:22:26;99677.55;;;3.85;66.77
80397;BME280;69721;55.894;-3.052;2023-12-07T12:24:52;99670.73;;;3.64;66.25
80397;BME280;69721;55.894;-3.052;2023-12-07T12:27:17;99663.59;;;4.06;65.98
80397;BME280;69721;55.894;-3.052;2023-12-07T12:29:43;99660.20;;;3.82;66.64
80397;BME280;69721;55.894;-3.052;2023-12-07T12:32:09;99655.88;;;3.77;67.01
80397;BME280;69721;55.894;-3.052;2023-12-07T12:34:35;99655.05;;;4.29;65.44
80397;BME280;69721;55.894;-3.052;2023-12-07T12:37:00;99652.01;;;3.77;66.97
80397;BME280;69721;55.894;-3.052;2023-12-07T12:39:27;99640.04;;;4.33;65.47
80397;BME280;69721;55.894;-3.052;2023-12-07T12:41:54;99625.54;;;3.17;68.73
80397;BME280;69721;55.894;-3.052;2023-12-07T12:44:17;99621.24;;;3.64;67.24
80397;BME280;69721;55.894;-3.052;2023-12-07T12:46:43;99604.74;;;3.31;68.95